Edgington, Illinois
Current Conditions -  °F | °C
As of 8:52 AM on Thursday 30 Oct 2014 (Local Time) from KMLI Reporting Station
Broken Clouds Broken Clouds  
Wind Chill: 40°   Ceiling: 11000
Heat Index: 40°   Visibility: 10mi
Dew Point: 34°   Wind: 0mph
Humidity: 79%   Direction: NA
Pressure: 30.11"   Gusts: NA
Location:  41.3983°N, 90.7402°W
Report Text: KMLI 301352Z 00000KT 10SM BKN110 04/01 A3011 RMK AO2 SLP200 T00440011
Loading
Personal Weather Stations






























Interactive Weather Map
Tropical Storm Tracking
New forecast layout! Learn more

10-Day Weather Forecast

Advertisements
Track Severe Weather on mobile